sensor_id;sensor_type;location;lat;lon;timestamp;P1;durP1;ratioP1;P2;durP2;ratioP2
13615;SDS011;6879;51.368;6.782;2024-01-07T00:02:08;0.00;;;0.00;;
13615;SDS011;6879;51.368;6.782;2024-01-07T00:04:37;0.00;;;0.00;;
13615;SDS011;6879;51.368;6.782;2024-01-07T00:07:05;0.00;;;0.00;;
13615;SDS011;6879;51.368;6.782;2024-01-07T00:09:34;0.00;;;0.00;;
13615;SDS011;6879;51.368;6.782;2024-01-07T00:12:05;0.10;;;0.10;;
13615;SDS011;6879;51.368;6.782;2024-01-07T00:14:34;0.10;;;0.10;;
13615;SDS011;6879;51.368;6.782;2024-01-07T00:17:03;0.00;;;0.00;;
13615;SDS011;6879;51.368;6.782;2024-01-07T00:19:32;0.00;;;0.00;;
13615;SDS011;6879;51.368;6.782;2024-01-07T00:22:02;0.00;;;0.00;;
13615;SDS011;6879;51.368;6.782;2024-01-07T00:24:31;0.10;;;0.10;;
13615;SDS011;6879;51.368;6.782;2024-01-07T00:27:00;0.00;;;0.00;;
13615;SDS011;6879;51.368;6.782;2024-01-07T00:29:30;0.00;;;0.00;;
13615;SDS011;6879;51.368;6.782;2024-01-07T00:32:01;0.00;;;0.00;;
13615;SDS011;6879;51.368;6.782;2024-01-07T00:34:31;0.00;;;0.00;;
13615;SDS011;6879;51.368;6.782;2024-01-07T00:37:00;0.00;;;0.00;;
13615;SDS011;6879;51.368;6.782;2024-01-07T00:39:29;0.00;;;0.00;;
13615;SDS011;6879;51.368;6.782;2024-01-07T00:41:58;0.00;;;0.00;;
13615;SDS011;6879;51.368;6.782;2024-01-07T00:44:27;0.07;;;0.07;;
13615;SDS011;6879;51.368;6.782;2024-01-07T00:46:57;0.10;;;0.10;;
13615;SDS011;6879;51.368;6.782;2024-01-07T00:49:26;0.00;;;0.00;;
13615;SDS011;6879;51.368;6.782;2024-01-07T00:51:55;0.00;;;0.00;;
13615;SDS011;6879;51.368;6.782;2024-01-07T00:54:23;0.00;;;0.00;;
13615;SDS011;6879;51.368;6.782;2024-01-07T00:56:52;0.10;;;0.10;;
13615;SDS011;6879;51.368;6.782;2024-01-07T00:59:21;0.10;;;0.10;;
13615;SDS011;6879;51.368;6.782;2024-01-07T01:01:49;0.10;;;0.10;;
13615;SDS011;6879;51.368;6.782;2024-01-07T01:04:20;0.00;;;0.00;;
13615;SDS011;6879;51.368;6.782;2024-01-07T01:06:49;0.10;;;0.10;;
13615;SDS011;6879;51.368;6.782;2024-01-07T01:09:18;0.00;;;0.00;;
13615;SDS011;6879;51.368;6.782;2024-01-07T01:11:47;0.00;;;0.00;;
13615;SDS011;6879;51.368;6.782;2024-01-07T01:14:16;0.00;;;0.00;;
13615;SDS011;6879;51.368;6.782;2024-01-07T01:16:45;0.00;;;0.00;;
13615;SDS011;6879;51.368;6.782;2024-01-07T01:19:14;0.00;;;0.00;;
13615;SDS011;6879;51.368;6.782;2024-01-07T01:21:44;0.00;;;0.00;;
13615;SDS011;6879;51.368;6.782;2024-01-07T01:24:13;0.00;;;0.00;;
13615;SDS011;6879;51.368;6.782;2024-01-07T01:26:41;0.00;;;0.00;;
13615;SDS011;6879;51.368;6.782;2024-01-07T01:29:10;0.03;;;0.03;;
13615;SDS011;6879;51.368;6.782;2024-01-07T01:31:39;0.00;;;0.00;;
13615;SDS011;6879;51.368;6.782;2024-01-07T01:34:07;0.10;;;0.10;;
13615;SDS011;6879;51.368;6.782;2024-01-07T01:36:36;0.00;;;0.00;;
13615;SDS011;6879;51.368;6.782;2024-01-07T01:39:06;0.10;;;0.10;;
13615;SDS011;6879;51.368;6.782;2024-01-07T01:41:35;0.10;;;0.10;;
13615;SDS011;6879;51.368;6.782;2024-01-07T01:44:04;0.10;;;0.10;;
13615;SDS011;6879;51.368;6.782;2024-01-07T01:46:32;0.00;;;0.00;;
13615;SDS011;6879;51.368;6.782;2024-01-07T01:49:01;0.10;;;0.10;;
13615;SDS011;6879;51.368;6.782;2024-01-07T01:51:30;0.10;;;0.10;;
13615;SDS011;6879;51.368;6.782;2024-01-07T01:54:00;0.10;;;0.10;;
13615;SDS011;6879;51.368;6.782;2024-01-07T01:56:31;0.10;;;0.10;;
13615;SDS011;6879;51.368;6.782;2024-01-07T01:59:01;0.10;;;0.10;;
13615;SDS011;6879;51.368;6.782;2024-01-07T02:01:30;0.10;;;0.10;;
13615;SDS011;6879;51.368;6.782;2024-01-07T02:03:59;0.10;;;0.10;;
13615;SDS011;6879;51.368;6.782;2024-01-07T02:06:28;0.10;;;0.10;;
13615;SDS011;6879;51.368;6.782;2024-01-07T02:08:57;0.10;;;0.10;;
13615;SDS011;6879;51.368;6.782;2024-01-07T02:11:26;0.10;;;0.10;;
13615;SDS011;6879;51.368;6.782;2024-01-07T02:13:56;0.10;;;0.10;;
13615;SDS011;6879;51.368;6.782;2024-01-07T02:16:25;0.10;;;0.10;;
13615;SDS011;6879;51.368;6.782;2024-01-07T02:18:53;0.03;;;0.03;;
13615;SDS011;6879;51.368;6.782;2024-01-07T02:21:23;0.10;;;0.10;;
13615;SDS011;6879;51.368;6.782;2024-01-07T02:23:51;0.10;;;0.10;;
13615;SDS011;6879;51.368;6.782;2024-01-07T02:26:21;0.10;;;0.10;;
13615;SDS011;6879;51.368;6.782;2024-01-07T02:28:50;0.10;;;0.10;;
13615;SDS011;6879;51.368;6.782;2024-01-07T02:31:19;0.10;;;0.10;;
13615;SDS011;6879;51.368;6.782;2024-01-07T02:33:48;0.10;;;0.10;;
13615;SDS011;6879;51.368;6.782;2024-01-07T02:36:17;0.10;;;0.10;;
13615;SDS011;6879;51.368;6.782;2024-01-07T02:38:45;0.10;;;0.10;;
13615;SDS011;6879;51.368;6.782;2024-01-07T02:41:14;0.10;;;0.10;;
13615;SDS011;6879;51.368;6.782;2024-01-07T02:43:45;0.10;;;0.10;;
13615;SDS011;6879;51.368;6.782;2024-01-07T02:46:14;0.10;;;0.10;;
13615;SDS011;6879;51.368;6.782;2024-01-07T02:48:43;0.10;;;0.10;;
13615;SDS011;6879;51.368;6.782;2024-01-07T02:51:12;0.10;;;0.10;;
13615;SDS011;6879;51.368;6.782;2024-01-07T02:53:41;0.10;;;0.10;;
13615;SDS011;6879;51.368;6.782;2024-01-07T02:56:10;0.10;;;0.10;;
13615;SDS011;6879;51.368;6.782;2024-01-07T02:58:38;0.10;;;0.10;;
13615;SDS011;6879;51.368;6.782;2024-01-07T03:01:09;0.10;;;0.10;;
13615;SDS011;6879;51.368;6.782;2024-01-07T03:03:38;0.10;;;0.10;;
13615;SDS011;6879;51.368;6.782;2024-01-07T03:06:07;0.10;;;0.10;;
13615;SDS011;6879;51.368;6.782;2024-01-07T03:08:36;0.10;;;0.10;;
13615;SDS011;6879;51.368;6.782;2024-01-07T03:11:05;0.10;;;0.10;;
13615;SDS011;6879;51.368;6.782;2024-01-07T03:13:34;0.10;;;0.10;;
13615;SDS011;6879;51.368;6.782;2024-01-07T03:16:03;0.10;;;0.10;;
13615;SDS011;6879;51.368;6.782;2024-01-07T03:18:34;0.10;;;0.10;;
13615;SDS011;6879;51.368;6.782;2024-01-07T03:21:03;0.10;;;0.10;;
13615;SDS011;6879;51.368;6.782;2024-01-07T03:23:31;0.10;;;0.10;;
13615;SDS011;6879;51.368;6.782;2024-01-07T03:26:00;0.10;;;0.10;;
13615;SDS011;6879;51.368;6.782;2024-01-07T03:28:29;0.10;;;0.10;;
13615;SDS011;6879;51.368;6.782;2024-01-07T03:30:57;0.10;;;0.10;;
13615;SDS011;6879;51.368;6.782;2024-01-07T03:33:26;0.10;;;0.10;;
13615;SDS011;6879;51.368;6.782;2024-01-07T03:35:56;0.10;;;0.10;;
13615;SDS011;6879;51.368;6.782;2024-01-07T03:38:26;0.10;;;0.10;;
13615;SDS011;6879;51.368;6.782;2024-01-07T03:40:55;0.10;;;0.10;;
13615;SDS011;6879;51.368;6.782;2024-01-07T03:43:23;0.10;;;0.10;;
13615;SDS011;6879;51.368;6.782;2024-01-07T03:45:52;0.10;;;0.10;;
13615;SDS011;6879;51.368;6.782;2024-01-07T03:48:21;0.10;;;0.10;;
13615;SDS011;6879;51.368;6.782;2024-01-07T03:50:50;0.10;;;0.10;;
13615;SDS011;6879;51.368;6.782;2024-01-07T03:53:20;0.10;;;0.10;;
13615;SDS011;6879;51.368;6.782;2024-01-07T03:55:49;0.10;;;0.10;;
13615;SDS011;6879;51.368;6.782;2024-01-07T03:58:18;0.10;;;0.10;;
13615;SDS011;6879;51.368;6.782;2024-01-07T04:00:46;0.10;;;0.10;;
13615;SDS011;6879;51.368;6.782;2024-01-07T04:03:15;0.10;;;0.10;;
13615;SDS011;6879;51.368;6.782;2024-01-07T04:05:44;0.10;;;0.10;;
13615;SDS011;6879;51.368;6.782;2024-01-07T04:08:13;0.10;;;0.10;;
13615;SDS011;6879;51.368;6.782;2024-01-07T04:10:43;0.10;;;0.10;;
13615;SDS011;6879;51.368;6.782;2024-01-07T04:13:12;0.10;;;0.10;;
13615;SDS011;6879;51.368;6.782;2024-01-07T04:15:41;0.10;;;0.10;;
13615;SDS011;6879;51.368;6.782;2024-01-07T04:18:10;0.10;;;0.10;;
13615;SDS011;6879;51.368;6.782;2024-01-07T04:20:39;0.10;;;0.10;;
13615;SDS011;6879;51.368;6.782;2024-01-07T04:23:07;0.10;;;0.10;;
13615;SDS011;6879;51.368;6.782;2024-01-07T04:25:36;0.10;;;0.10;;
13615;SDS011;6879;51.368;6.782;2024-01-07T04:28:08;0.20;;;0.20;;
13615;SDS011;6879;51.368;6.782;2024-01-07T04:30:37;0.10;;;0.10;;
13615;SDS011;6879;51.368;6.782;2024-01-07T04:33:06;0.10;;;0.10;;
13615;SDS011;6879;51.368;6.782;2024-01-07T04:35:35;0.10;;;0.10;;
13615;SDS011;6879;51.368;6.782;2024-01-07T04:38:04;0.13;;;0.13;;
13615;SDS011;6879;51.368;6.782;2024-01-07T04:40:32;0.10;;;0.10;;
13615;SDS011;6879;51.368;6.782;2024-01-07T04:43:01;0.10;;;0.10;;
13615;SDS011;6879;51.368;6.782;2024-01-07T04:45:30;0.10;;;0.10;;
13615;SDS011;6879;51.368;6.782;2024-01-07T04:47:59;0.10;;;0.10;;
13615;SDS011;6879;51.368;6.782;2024-01-07T04:50:28;0.10;;;0.10;;
13615;SDS011;6879;51.368;6.782;2024-01-07T04:52:57;0.10;;;0.10;;
13615;SDS011;6879;51.368;6.782;2024-01-07T04:55:26;0.10;;;0.10;;
13615;SDS011;6879;51.368;6.782;2024-01-07T04:57:55;0.10;;;0.10;;
13615;SDS011;6879;51.368;6.782;2024-01-07T05:00:24;0.10;;;0.10;;
13615;SDS011;6879;51.368;6.782;2024-01-07T05:02:54;0.10;;;0.10;;
13615;SDS011;6879;51.368;6.782;2024-01-07T05:05:22;0.10;;;0.10;;
13615;SDS011;6879;51.368;6.782;2024-01-07T05:07:51;0.10;;;0.10;;
13615;SDS011;6879;51.368;6.782;2024-01-07T05:10:20;0.10;;;0.10;;
13615;SDS011;6879;51.368;6.782;2024-01-07T05:12:48;0.10;;;0.10;;
13615;SDS011;6879;51.368;6.782;2024-01-07T05:15:17;0.10;;;0.10;;
13615;SDS011;6879;51.368;6.782;2024-01-07T05:17:46;0.10;;;0.10;;
13615;SDS011;6879;51.368;6.782;2024-01-07T05:20:16;0.10;;;0.10;;
13615;SDS011;6879;51.368;6.782;2024-01-07T05:22:45;0.10;;;0.10;;
13615;SDS011;6879;51.368;6.782;2024-01-07T05:25:14;0.13;;;0.13;;
13615;SDS011;6879;51.368;6.782;2024-01-07T05:27:43;0.10;;;0.10;;
13615;SDS011;6879;51.368;6.782;2024-01-07T05:30:11;0.10;;;0.10;;
13615;SDS011;6879;51.368;6.782;2024-01-07T05:32:40;0.10;;;0.10;;
13615;SDS011;6879;51.368;6.782;2024-01-07T05:35:09;0.10;;;0.10;;
13615;SDS011;6879;51.368;6.782;2024-01-07T05:37:39;0.10;;;0.10;;
13615;SDS011;6879;51.368;6.782;2024-01-07T05:40:08;0.10;;;0.10;;
13615;SDS011;6879;51.368;6.782;2024-01-07T05:42:38;0.10;;;0.10;;
13615;SDS011;6879;51.368;6.782;2024-01-07T05:45:07;0.10;;;0.10;;
13615;SDS011;6879;51.368;6.782;2024-01-07T05:47:36;0.10;;;0.10;;
13615;SDS011;6879;51.368;6.782;2024-01-07T05:50:04;0.10;;;0.10;;
13615;SDS011;6879;51.368;6.782;2024-01-07T05:52:33;0.10;;;0.10;;
13615;SDS011;6879;51.368;6.782;2024-01-07T05:55:04;0.10;;;0.10;;
13615;SDS011;6879;51.368;6.782;2024-01-07T05:57:33;0.10;;;0.10;;
13615;SDS011;6879;51.368;6.782;2024-01-07T06:00:03;0.20;;;0.20;;
13615;SDS011;6879;51.368;6.782;2024-01-07T06:02:38;0.10;;;0.10;;
13615;SDS011;6879;51.368;6.782;2024-01-07T06:05:07;0.10;;;0.10;;
13615;SDS011;6879;51.368;6.782;2024-01-07T06:07:36;0.10;;;0.10;;
13615;SDS011;6879;51.368;6.782;2024-01-07T06:10:07;0.10;;;0.10;;
13615;SDS011;6879;51.368;6.782;2024-01-07T06:12:36;0.10;;;0.10;;
13615;SDS011;6879;51.368;6.782;2024-01-07T06:15:05;0.10;;;0.10;;
13615;SDS011;6879;51.368;6.782;2024-01-07T06:17:34;0.10;;;0.10;;
13615;SDS011;6879;51.368;6.782;2024-01-07T06:20:03;0.10;;;0.10;;
13615;SDS011;6879;51.368;6.782;2024-01-07T06:22:35;0.17;;;0.17;;
13615;SDS011;6879;51.368;6.782;2024-01-07T06:25:04;0.10;;;0.10;;
13615;SDS011;6879;51.368;6.782;2024-01-07T06:27:38;0.10;;;0.10;;
13615;SDS011;6879;51.368;6.782;2024-01-07T06:30:08;0.10;;;0.10;;
13615;SDS011;6879;51.368;6.782;2024-01-07T06:32:37;0.10;;;0.10;;
13615;SDS011;6879;51.368;6.782;2024-01-07T06:35:06;0.10;;;0.10;;
13615;SDS011;6879;51.368;6.782;2024-01-07T06:37:35;0.10;;;0.10;;
13615;SDS011;6879;51.368;6.782;2024-01-07T06:40:04;0.20;;;0.20;;
13615;SDS011;6879;51.368;6.782;2024-01-07T06:42:35;0.10;;;0.10;;
13615;SDS011;6879;51.368;6.782;2024-01-07T06:45:03;0.10;;;0.10;;
13615;SDS011;6879;51.368;6.782;2024-01-07T06:47:33;0.10;;;0.10;;
13615;SDS011;6879;51.368;6.782;2024-01-07T06:50:02;0.20;;;0.20;;
13615;SDS011;6879;51.368;6.782;2024-01-07T06:52:31;0.10;;;0.10;;
13615;SDS011;6879;51.368;6.782;2024-01-07T06:54:59;0.10;;;0.10;;
13615;SDS011;6879;51.368;6.782;2024-01-07T06:57:28;0.20;;;0.20;;
13615;SDS011;6879;51.368;6.782;2024-01-07T06:59:58;0.10;;;0.10;;
13615;SDS011;6879;51.368;6.782;2024-01-07T07:02:27;0.13;;;0.13;;
13615;SDS011;6879;51.368;6.782;2024-01-07T07:04:55;0.20;;;0.20;;
13615;SDS011;6879;51.368;6.782;2024-01-07T07:07:25;0.20;;;0.20;;
13615;SDS011;6879;51.368;6.782;2024-01-07T07:09:53;0.10;;;0.10;;
13615;SDS011;6879;51.368;6.782;2024-01-07T07:12:22;0.20;;;0.20;;
13615;SDS011;6879;51.368;6.782;2024-01-07T07:14:51;0.20;;;0.20;;
13615;SDS011;6879;51.368;6.782;2024-01-07T07:17:21;0.10;;;0.10;;
13615;SDS011;6879;51.368;6.782;2024-01-07T07:19:50;0.10;;;0.10;;
13615;SDS011;6879;51.368;6.782;2024-01-07T07:22:18;0.10;;;0.10;;
13615;SDS011;6879;51.368;6.782;2024-01-07T07:24:47;0.10;;;0.10;;
13615;SDS011;6879;51.368;6.782;2024-01-07T07:27:16;0.20;;;0.20;;
13615;SDS011;6879;51.368;6.782;2024-01-07T07:29:45;0.10;;;0.10;;
13615;SDS011;6879;51.368;6.782;2024-01-07T07:32:13;0.20;;;0.20;;
13615;SDS011;6879;51.368;6.782;2024-01-07T07:34:44;0.10;;;0.10;;
13615;SDS011;6879;51.368;6.782;2024-01-07T07:37:13;0.10;;;0.10;;
13615;SDS011;6879;51.368;6.782;2024-01-07T07:39:46;0.10;;;0.10;;
13615;SDS011;6879;51.368;6.782;2024-01-07T07:42:16;0.10;;;0.10;;
13615;SDS011;6879;51.368;6.782;2024-01-07T07:44:45;0.20;;;0.20;;
13615;SDS011;6879;51.368;6.782;2024-01-07T07:47:14;0.20;;;0.20;;
13615;SDS011;6879;51.368;6.782;2024-01-07T07:49:44;0.10;;;0.10;;
13615;SDS011;6879;51.368;6.782;2024-01-07T07:52:13;0.10;;;0.10;;
13615;SDS011;6879;51.368;6.782;2024-01-07T07:54:42;0.10;;;0.10;;
13615;SDS011;6879;51.368;6.782;2024-01-07T07:57:11;0.13;;;0.13;;
13615;SDS011;6879;51.368;6.782;2024-01-07T07:59:40;0.20;;;0.20;;
13615;SDS011;6879;51.368;6.782;2024-01-07T08:02:09;0.20;;;0.20;;
13615;SDS011;6879;51.368;6.782;2024-01-07T08:04:37;0.20;;;0.20;;
13615;SDS011;6879;51.368;6.782;2024-01-07T08:07:09;0.17;;;0.17;;
13615;SDS011;6879;51.368;6.782;2024-01-07T08:09:38;0.10;;;0.10;;
13615;SDS011;6879;51.368;6.782;2024-01-07T08:12:07;0.20;;;0.20;;
13615;SDS011;6879;51.368;6.782;2024-01-07T08:14:35;0.10;;;0.10;;
13615;SDS011;6879;51.368;6.782;2024-01-07T08:17:07;0.13;;;0.13;;
13615;SDS011;6879;51.368;6.782;2024-01-07T08:19:36;0.20;;;0.20;;
13615;SDS011;6879;51.368;6.782;2024-01-07T08:22:05;0.17;;;0.17;;
13615;SDS011;6879;51.368;6.782;2024-01-07T08:24:34;0.20;;;0.20;;
13615;SDS011;6879;51.368;6.782;2024-01-07T08:27:02;0.20;;;0.20;;
13615;SDS011;6879;51.368;6.782;2024-01-07T08:29:32;0.17;;;0.17;;
13615;SDS011;6879;51.368;6.782;2024-01-07T08:32:00;0.20;;;0.20;;
13615;SDS011;6879;51.368;6.782;2024-01-07T08:34:29;0.20;;;0.20;;
13615;SDS011;6879;51.368;6.782;2024-01-07T08:36:58;0.20;;;0.20;;
13615;SDS011;6879;51.368;6.782;2024-01-07T08:39:30;0.20;;;0.20;;
13615;SDS011;6879;51.368;6.782;2024-01-07T08:42:00;0.20;;;0.20;;
13615;SDS011;6879;51.368;6.782;2024-01-07T08:44:30;0.20;;;0.20;;
13615;SDS011;6879;51.368;6.782;2024-01-07T08:46:59;0.20;;;0.20;;
13615;SDS011;6879;51.368;6.782;2024-01-07T08:49:28;0.17;;;0.17;;
13615;SDS011;6879;51.368;6.782;2024-01-07T08:52:00;0.20;;;0.20;;
13615;SDS011;6879;51.368;6.782;2024-01-07T08:54:29;0.20;;;0.20;;
13615;SDS011;6879;51.368;6.782;2024-01-07T08:56:57;0.20;;;0.20;;
13615;SDS011;6879;51.368;6.782;2024-01-07T08:59:28;0.20;;;0.20;;
13615;SDS011;6879;51.368;6.782;2024-01-07T09:01:56;0.20;;;0.20;;
13615;SDS011;6879;51.368;6.782;2024-01-07T09:04:25;0.10;;;0.10;;
13615;SDS011;6879;51.368;6.782;2024-01-07T09:06:54;0.10;;;0.10;;
13615;SDS011;6879;51.368;6.782;2024-01-07T09:09:23;0.10;;;0.10;;
13615;SDS011;6879;51.368;6.782;2024-01-07T09:11:53;0.20;;;0.20;;
13615;SDS011;6879;51.368;6.782;2024-01-07T09:14:26;0.20;;;0.20;;
13615;SDS011;6879;51.368;6.782;2024-01-07T09:17:08;0.20;;;0.20;;
13615;SDS011;6879;51.368;6.782;2024-01-07T09:19:36;0.20;;;0.20;;
13615;SDS011;6879;51.368;6.782;2024-01-07T09:22:05;0.20;;;0.20;;
13615;SDS011;6879;51.368;6.782;2024-01-07T09:24:34;0.20;;;0.20;;
13615;SDS011;6879;51.368;6.782;2024-01-07T09:27:03;0.30;;;0.30;;
13615;SDS011;6879;51.368;6.782;2024-01-07T09:29:32;0.20;;;0.20;;
13615;SDS011;6879;51.368;6.782;2024-01-07T09:32:03;0.20;;;0.20;;
13615;SDS011;6879;51.368;6.782;2024-01-07T09:34:32;0.20;;;0.20;;
13615;SDS011;6879;51.368;6.782;2024-01-07T09:37:01;0.20;;;0.20;;
13615;SDS011;6879;51.368;6.782;2024-01-07T09:39:30;0.20;;;0.20;;
13615;SDS011;6879;51.368;6.782;2024-01-07T09:41:59;0.20;;;0.20;;
13615;SDS011;6879;51.368;6.782;2024-01-07T09:44:27;0.20;;;0.20;;
13615;SDS011;6879;51.368;6.782;2024-01-07T09:46:56;0.20;;;0.20;;
13615;SDS011;6879;51.368;6.782;2024-01-07T09:49:28;0.20;;;0.20;;
13615;SDS011;6879;51.368;6.782;2024-01-07T09:51:59;0.10;;;0.10;;
13615;SDS011;6879;51.368;6.782;2024-01-07T09:54:28;0.10;;;0.10;;
13615;SDS011;6879;51.368;6.782;2024-01-07T09:56:59;0.20;;;0.20;;
13615;SDS011;6879;51.368;6.782;2024-01-07T09:59:29;0.20;;;0.20;;
13615;SDS011;6879;51.368;6.782;2024-01-07T10:01:58;0.20;;;0.20;;
13615;SDS011;6879;51.368;6.782;2024-01-07T10:04:29;0.20;;;0.20;;
13615;SDS011;6879;51.368;6.782;2024-01-07T10:06:58;0.20;;;0.20;;
13615;SDS011;6879;51.368;6.782;2024-01-07T10:09:28;0.20;;;0.20;;
13615;SDS011;6879;51.368;6.782;2024-01-07T10:11:58;0.20;;;0.20;;
13615;SDS011;6879;51.368;6.782;2024-01-07T10:14:26;0.20;;;0.20;;
13615;SDS011;6879;51.368;6.782;2024-01-07T10:16:59;0.20;;;0.20;;
13615;SDS011;6879;51.368;6.782;2024-01-07T10:19:29;0.20;;;0.20;;
13615;SDS011;6879;51.368;6.782;2024-01-07T10:21:58;0.20;;;0.20;;
13615;SDS011;6879;51.368;6.782;2024-01-07T10:24:31;0.20;;;0.20;;
13615;SDS011;6879;51.368;6.782;2024-01-07T10:27:05;0.20;;;0.20;;
13615;SDS011;6879;51.368;6.782;2024-01-07T10:29:35;0.20;;;0.20;;
13615;SDS011;6879;51.368;6.782;2024-01-07T10:32:04;0.20;;;0.20;;
13615;SDS011;6879;51.368;6.782;2024-01-07T10:34:35;0.20;;;0.20;;
13615;SDS011;6879;51.368;6.782;2024-01-07T10:37:05;0.20;;;0.20;;
13615;SDS011;6879;51.368;6.782;2024-01-07T10:39:33;0.20;;;0.20;;
13615;SDS011;6879;51.368;6.782;2024-01-07T10:42:03;0.20;;;0.20;;
13615;SDS011;6879;51.368;6.782;2024-01-07T10:44:33;0.20;;;0.20;;
13615;SDS011;6879;51.368;6.782;2024-01-07T10:47:03;0.20;;;0.20;;
13615;SDS011;6879;51.368;6.782;2024-01-07T10:49:37;0.20;;;0.20;;
13615;SDS011;6879;51.368;6.782;2024-01-07T10:52:10;0.20;;;0.20;;
13615;SDS011;6879;51.368;6.782;2024-01-07T10:54:40;0.20;;;0.20;;
13615;SDS011;6879;51.368;6.782;2024-01-07T10:57:13;0.20;;;0.20;;
13615;SDS011;6879;51.368;6.782;2024-01-07T10:59:48;0.10;;;0.10;;
13615;SDS011;6879;51.368;6.782;2024-01-07T11:02:19;0.20;;;0.20;;
13615;SDS011;6879;51.368;6.782;2024-01-07T11:04:51;0.20;;;0.20;;
13615;SDS011;6879;51.368;6.782;2024-01-07T11:07:29;0.10;;;0.10;;
13615;SDS011;6879;51.368;6.782;2024-01-07T11:10:05;0.10;;;0.10;;
13615;SDS011;6879;51.368;6.782;2024-01-07T11:12:40;0.30;;;0.30;;
13615;SDS011;6879;51.368;6.782;2024-01-07T11:15:08;0.20;;;0.20;;
13615;SDS011;6879;51.368;6.782;2024-01-07T11:17:42;0.20;;;0.20;;
13615;SDS011;6879;51.368;6.782;2024-01-07T11:20:17;0.20;;;0.20;;
13615;SDS011;6879;51.368;6.782;2024-01-07T11:22:48;0.20;;;0.20;;
13615;SDS011;6879;51.368;6.782;2024-01-07T11:25:30;0.20;;;0.20;;
13615;SDS011;6879;51.368;6.782;2024-01-07T11:28:00;0.20;;;0.20;;
13615;SDS011;6879;51.368;6.782;2024-01-07T11:30:30;0.23;;;0.23;;
13615;SDS011;6879;51.368;6.782;2024-01-07T11:33:08;0.20;;;0.20;;
13615;SDS011;6879;51.368;6.782;2024-01-07T11:35:55;0.20;;;0.20;;
13615;SDS011;6879;51.368;6.782;2024-01-07T11:38:25;0.20;;;0.20;;
13615;SDS011;6879;51.368;6.782;2024-01-07T11:40:53;0.10;;;0.10;;
13615;SDS011;6879;51.368;6.782;2024-01-07T11:43:24;0.20;;;0.20;;
13615;SDS011;6879;51.368;6.782;2024-01-07T11:45:53;0.20;;;0.20;;
13615;SDS011;6879;51.368;6.782;2024-01-07T11:48:22;0.20;;;0.20;;
13615;SDS011;6879;51.368;6.782;2024-01-07T11:51:33;0.20;;;0.20;;
13615;SDS011;6879;51.368;6.782;2024-01-07T11:54:07;0.10;;;0.10;;
13615;SDS011;6879;51.368;6.782;2024-01-07T11:56:36;0.20;;;0.20;;
13615;SDS011;6879;51.368;6.782;2024-01-07T11:59:09;0.20;;;0.20;;
13615;SDS011;6879;51.368;6.782;2024-01-07T12:01:58;0.20;;;0.20;;
13615;SDS011;6879;51.368;6.782;2024-01-07T12:04:38;0.20;;;0.20;;
13615;SDS011;6879;51.368;6.782;2024-01-07T12:07:10;0.10;;;0.10;;
13615;SDS011;6879;51.368;6.782;2024-01-07T12:09:42;0.30;;;0.30;;
13615;SDS011;6879;51.368;6.782;2024-01-07T12:12:13;0.20;;;0.20;;
13615;SDS011;6879;51.368;6.782;2024-01-07T12:17:19;0.20;;;0.20;;
13615;SDS011;6879;51.368;6.782;2024-01-07T12:18:51;0.20;;;0.20;;
13615;SDS011;6879;51.368;6.782;2024-01-07T12:21:34;0.20;;;0.20;;
13615;SDS011;6879;51.368;6.782;2024-01-07T12:24:54;0.17;;;0.17;;
13615;SDS011;6879;51.368;6.782;2024-01-07T12:27:36;0.20;;;0.20;;
13615;SDS011;6879;51.368;6.782;2024-01-07T12:30:23;0.30;;;0.30;;
13615;SDS011;6879;51.368;6.782;2024-01-07T12:33:27;0.20;;;0.20;;
13615;SDS011;6879;51.368;6.782;2024-01-07T12:36:01;0.20;;;0.20;;
13615;SDS011;6879;51.368;6.782;2024-01-07T12:38:36;0.20;;;0.20;;
13615;SDS011;6879;51.368;6.782;2024-01-07T12:41:07;0.20;;;0.20;;
13615;SDS011;6879;51.368;6.782;2024-01-07T12:43:37;0.20;;;0.20;;
13615;SDS011;6879;51.368;6.782;2024-01-07T12:46:06;0.20;;;0.20;;
13615;SDS011;6879;51.368;6.782;2024-01-07T12:48:35;0.20;;;0.20;;
13615;SDS011;6879;51.368;6.782;2024-01-07T12:51:04;0.20;;;0.20;;
13615;SDS011;6879;51.368;6.782;2024-01-07T12:53:33;0.10;;;0.10;;
13615;SDS011;6879;51.368;6.782;2024-01-07T12:56:03;0.20;;;0.20;;
13615;SDS011;6879;51.368;6.782;2024-01-07T12:58:35;0.30;;;0.30;;
13615;SDS011;6879;51.368;6.782;2024-01-07T13:01:03;0.20;;;0.20;;
13615;SDS011;6879;51.368;6.782;2024-01-07T13:03:33;0.27;;;0.27;;
13615;SDS011;6879;51.368;6.782;2024-01-07T13:06:02;0.10;;;0.10;;
13615;SDS011;6879;51.368;6.782;2024-01-07T13:08:34;0.20;;;0.20;;
13615;SDS011;6879;51.368;6.782;2024-01-07T13:11:03;0.30;;;0.30;;
13615;SDS011;6879;51.368;6.782;2024-01-07T13:13:36;0.20;;;0.20;;
13615;SDS011;6879;51.368;6.782;2024-01-07T13:16:05;0.30;;;0.30;;
13615;SDS011;6879;51.368;6.782;2024-01-07T13:18:35;0.20;;;0.20;;
13615;SDS011;6879;51.368;6.782;2024-01-07T13:21:04;0.20;;;0.20;;
13615;SDS011;6879;51.368;6.782;2024-01-07T13:23:34;0.20;;;0.20;;
13615;SDS011;6879;51.368;6.782;2024-01-07T13:26:03;0.30;;;0.30;;
13615;SDS011;6879;51.368;6.782;2024-01-07T13:28:33;0.30;;;0.30;;
13615;SDS011;6879;51.368;6.782;2024-01-07T13:31:04;0.20;;;0.20;;
13615;SDS011;6879;51.368;6.782;2024-01-07T13:33:39;0.10;;;0.10;;
13615;SDS011;6879;51.368;6.782;2024-01-07T13:36:10;0.30;;;0.30;;
13615;SDS011;6879;51.368;6.782;2024-01-07T13:38:49;0.30;;;0.30;;
13615;SDS011;6879;51.368;6.782;2024-01-07T13:41:30;0.30;;;0.30;;
13615;SDS011;6879;51.368;6.782;2024-01-07T13:43:59;0.10;;;0.10;;
13615;SDS011;6879;51.368;6.782;2024-01-07T13:46:31;0.30;;;0.30;;
13615;SDS011;6879;51.368;6.782;2024-01-07T13:49:00;0.20;;;0.20;;
13615;SDS011;6879;51.368;6.782;2024-01-07T13:51:29;0.30;;;0.30;;
13615;SDS011;6879;51.368;6.782;2024-01-07T13:53:58;0.20;;;0.20;;
13615;SDS011;6879;51.368;6.782;2024-01-07T13:56:27;0.30;;;0.30;;
13615;SDS011;6879;51.368;6.782;2024-01-07T13:58:56;0.30;;;0.30;;
13615;SDS011;6879;51.368;6.782;2024-01-07T14:01:25;0.20;;;0.20;;
13615;SDS011;6879;51.368;6.782;2024-01-07T14:03:55;0.20;;;0.20;;
13615;SDS011;6879;51.368;6.782;2024-01-07T14:06:24;0.20;;;0.20;;
13615;SDS011;6879;51.368;6.782;2024-01-07T14:08:53;0.20;;;0.20;;
13615;SDS011;6879;51.368;6.782;2024-01-07T14:11:21;0.20;;;0.20;;
13615;SDS011;6879;51.368;6.782;2024-01-07T14:13:50;0.20;;;0.20;;
13615;SDS011;6879;51.368;6.782;2024-01-07T14:16:19;0.27;;;0.27;;
13615;SDS011;6879;51.368;6.782;2024-01-07T14:18:50;0.30;;;0.30;;
13615;SDS011;6879;51.368;6.782;2024-01-07T14:21:27;0.20;;;0.20;;
13615;SDS011;6879;51.368;6.782;2024-01-07T14:23:57;0.30;;;0.30;;
13615;SDS011;6879;51.368;6.782;2024-01-07T14:26:26;0.20;;;0.20;;
13615;SDS011;6879;51.368;6.782;2024-01-07T14:28:55;0.23;;;0.23;;
13615;SDS011;6879;51.368;6.782;2024-01-07T14:31:41;0.30;;;0.30;;
13615;SDS011;6879;51.368;6.782;2024-01-07T14:34:12;0.30;;;0.30;;
13615;SDS011;6879;51.368;6.782;2024-01-07T14:36:42;0.20;;;0.20;;
13615;SDS011;6879;51.368;6.782;2024-01-07T14:39:11;0.10;;;0.10;;
13615;SDS011;6879;51.368;6.782;2024-01-07T14:41:41;0.20;;;0.20;;
13615;SDS011;6879;51.368;6.782;2024-01-07T14:44:10;0.23;;;0.23;;
13615;SDS011;6879;51.368;6.782;2024-01-07T14:46:42;0.30;;;0.30;;
13615;SDS011;6879;51.368;6.782;2024-01-07T14:49:10;0.20;;;0.20;;
13615;SDS011;6879;51.368;6.782;2024-01-07T14:51:39;0.30;;;0.30;;
13615;SDS011;6879;51.368;6.782;2024-01-07T14:54:10;0.20;;;0.20;;
13615;SDS011;6879;51.368;6.782;2024-01-07T14:56:38;0.30;;;0.30;;
13615;SDS011;6879;51.368;6.782;2024-01-07T14:59:07;0.30;;;0.30;;
13615;SDS011;6879;51.368;6.782;2024-01-07T15:01:36;0.20;;;0.20;;
13615;SDS011;6879;51.368;6.782;2024-01-07T15:04:06;0.30;;;0.30;;
13615;SDS011;6879;51.368;6.782;2024-01-07T15:06:39;0.20;;;0.20;;
13615;SDS011;6879;51.368;6.782;2024-01-07T15:09:10;0.30;;;0.30;;
13615;SDS011;6879;51.368;6.782;2024-01-07T15:11:41;0.20;;;0.20;;
13615;SDS011;6879;51.368;6.782;2024-01-07T15:14:13;0.27;;;0.27;;
13615;SDS011;6879;51.368;6.782;2024-01-07T15:16:42;0.23;;;0.23;;
13615;SDS011;6879;51.368;6.782;2024-01-07T15:19:12;0.20;;;0.20;;
13615;SDS011;6879;51.368;6.782;2024-01-07T15:21:41;0.20;;;0.20;;